createdAt,value
2022-09-27T00:01:57.866Z,14.41
2022-09-27T00:04:27.481Z,14.29
2022-09-27T00:06:55.665Z,14.28
2022-09-27T00:09:23.713Z,14.30
2022-09-27T00:11:51.835Z,14.37
2022-09-27T00:14:19.923Z,14.49
2022-09-27T00:16:48.076Z,14.45
2022-09-27T00:19:19.316Z,14.26
2022-09-27T00:21:49.953Z,14.25
2022-09-27T00:24:25.185Z,14.32
2022-09-27T00:26:53.215Z,14.17
2022-09-27T00:29:21.764Z,14.23
2022-09-27T00:31:49.870Z,14.33
2022-09-27T00:34:22.498Z,14.32
2022-09-27T00:36:53.191Z,14.41
2022-09-27T00:39:21.293Z,14.42
2022-09-27T00:41:49.461Z,14.49
2022-09-27T00:45:07.538Z,14.39
2022-09-27T00:47:46.790Z,14.47
2022-09-27T00:50:33.440Z,14.43
2022-09-27T00:53:12.130Z,14.34
2022-09-27T00:55:45.273Z,14.39
2022-09-27T00:58:16.211Z,14.30
2022-09-27T01:00:49.669Z,14.35
2022-09-27T01:03:29.486Z,14.36
2022-09-27T01:05:59.120Z,14.38
2022-09-27T01:08:28.577Z,14.42
2022-09-27T01:11:14.910Z,14.37
2022-09-27T01:13:56.862Z,14.41
2022-09-27T01:16:37.131Z,14.43
2022-09-27T01:19:17.590Z,14.46
2022-09-27T01:21:57.076Z,14.42
2022-09-27T01:24:58.363Z,14.35
2022-09-27T01:28:09.652Z,14.28
2022-09-27T01:30:51.803Z,14.24
2022-09-27T01:33:33.063Z,14.37
2022-09-27T01:36:25.184Z,14.32
2022-09-27T01:39:09.050Z,14.34
2022-09-27T01:42:19.807Z,14.38
2022-09-27T01:45:00.831Z,14.36
2022-09-27T01:47:42.040Z,14.40
2022-09-27T01:50:43.904Z,14.39
2022-09-27T01:53:18.943Z,14.44
2022-09-27T01:56:17.407Z,14.42
2022-09-27T01:58:59.326Z,14.37
2022-09-27T02:06:32.077Z,14.29
2022-09-27T02:09:14.380Z,14.36
2022-09-27T02:12:14.160Z,14.26
2022-09-27T02:14:51.458Z,13.96
2022-09-27T02:17:32.454Z,13.86
2022-09-27T02:20:12.159Z,13.60
2022-09-27T02:22:55.242Z,13.49
2022-09-27T02:25:29.426Z,13.55
2022-09-27T02:28:05.662Z,13.63
2022-09-27T02:30:35.900Z,13.68
2022-09-27T02:33:17.408Z,13.50
2022-09-27T02:35:46.320Z,13.68
2022-09-27T02:38:16.570Z,13.69
2022-09-27T02:40:47.521Z,13.60
2022-09-27T02:43:19.135Z,13.55
2022-09-27T02:46:15.323Z,13.51
2022-09-27T02:48:58.850Z,13.49
2022-09-27T02:51:43.658Z,13.37
2022-09-27T02:54:25.413Z,13.20
2022-09-27T02:57:26.245Z,13.10
2022-09-27T03:00:11.017Z,13.08
2022-09-27T03:02:56.830Z,13.06
2022-09-27T03:05:30.333Z,13.15
2022-09-27T03:07:58.796Z,13.16
2022-09-27T03:10:31.374Z,13.17
2022-09-27T03:12:59.940Z,13.22
2022-09-27T03:15:28.150Z,13.05
2022-09-27T03:18:03.210Z,13.14
2022-09-27T03:20:57.065Z,13.30
2022-09-27T03:23:27.510Z,13.35
2022-09-27T03:25:57.603Z,13.32
2022-09-27T03:28:25.804Z,13.18
2022-09-27T03:30:54.190Z,13.26
2022-09-27T03:33:48.670Z,13.12
2022-09-27T03:36:16.998Z,13.09
2022-09-27T03:38:45.042Z,13.20
2022-09-27T03:41:18.746Z,13.18
2022-09-27T03:43:46.830Z,13.13
2022-09-27T03:46:15.027Z,13.23
2022-09-27T03:48:43.548Z,13.22
2022-09-27T03:51:12.747Z,13.21
2022-09-27T03:53:40.874Z,13.35
2022-09-27T03:56:09.005Z,13.34
2022-09-27T03:58:38.778Z,13.41
2022-09-27T04:01:07.991Z,13.38
2022-09-27T04:03:38.135Z,13.33
2022-09-27T04:06:23.994Z,13.25
2022-09-27T04:08:52.087Z,13.18
2022-09-27T04:11:20.314Z,13.20
2022-09-27T04:13:49.894Z,13.15
2022-09-27T04:16:19.911Z,13.15
2022-09-27T04:18:54.435Z,13.09
2022-09-27T04:21:42.441Z,13.09
2022-09-27T04:24:12.303Z,13.12
2022-09-27T04:26:45.432Z,13.28
2022-09-27T04:29:16.998Z,13.25
2022-09-27T04:31:50.606Z,13.39
2022-09-27T04:35:07.138Z,13.48
2022-09-27T04:37:36.798Z,13.38
2022-09-27T04:40:06.320Z,13.19
2022-09-27T04:42:35.854Z,13.15
2022-09-27T04:45:06.361Z,13.12
2022-09-27T04:47:35.147Z,13.27
2022-09-27T04:50:03.406Z,13.15
2022-09-27T04:52:37.556Z,13.23
2022-09-27T04:55:06.975Z,13.20
2022-09-27T04:57:35.860Z,13.08
2022-09-27T05:00:10.774Z,13.35
2022-09-27T05:02:39.218Z,13.40
2022-09-27T05:05:36.823Z,13.27
2022-09-27T05:08:04.927Z,13.18
2022-09-27T05:10:59.042Z,13.09
2022-09-27T05:13:27.900Z,13.23
2022-09-27T05:16:03.017Z,13.24
2022-09-27T05:18:42.230Z,13.22
2022-09-27T05:21:43.148Z,13.30
2022-09-27T05:24:11.186Z,13.30
2022-09-27T05:26:39.322Z,13.08
2022-09-27T05:29:07.375Z,13.11
2022-09-27T05:31:36.924Z,13.10
2022-09-27T05:34:05.097Z,13.05
2022-09-27T05:36:43.594Z,13.13
2022-09-27T05:39:11.768Z,13.11
2022-09-27T05:41:41.178Z,13.15
2022-09-27T05:44:09.382Z,13.14
2022-09-27T05:46:48.095Z,13.15
2022-09-27T05:49:16.157Z,13.11
2022-09-27T05:51:44.646Z,13.06
2022-09-27T05:54:13.627Z,13.08
2022-09-27T05:56:42.455Z,13.14
2022-09-27T05:59:27.569Z,13.21
2022-09-27T06:02:19.791Z,13.20
2022-09-27T06:05:07.999Z,13.12
2022-09-27T06:07:41.757Z,13.01
2022-09-27T06:10:16.452Z,13.02
2022-09-27T06:12:44.551Z,13.03
2022-09-27T06:19:47.656Z,13.00
2022-09-27T06:22:16.346Z,13.04
2022-09-27T06:24:55.890Z,13.20
2022-09-27T06:27:27.251Z,13.21
2022-09-27T06:30:00.391Z,13.25
2022-09-27T06:32:49.255Z,13.04
2022-09-27T06:35:27.087Z,13.11
2022-09-27T06:37:55.648Z,13.00
2022-09-27T06:40:27.106Z,13.04
2022-09-27T06:43:20.810Z,12.90
2022-09-27T06:46:10.800Z,12.84
2022-09-27T06:48:57.561Z,12.81
2022-09-27T06:51:27.240Z,12.85
2022-09-27T06:53:55.263Z,12.91
2022-09-27T06:56:23.253Z,12.92
2022-09-27T06:59:10.702Z,12.91
2022-09-27T07:01:45.466Z,12.84
2022-09-27T07:04:41.532Z,12.89
2022-09-27T07:07:25.518Z,12.98
2022-09-27T07:09:54.459Z,13.04
2022-09-27T07:12:24.407Z,13.05
2022-09-27T07:14:52.409Z,12.97
2022-09-27T07:17:20.566Z,13.00
2022-09-27T07:19:51.315Z,12.95
2022-09-27T07:22:19.623Z,12.79
2022-09-27T07:24:55.148Z,12.84
2022-09-27T07:27:26.579Z,12.87
2022-09-27T07:29:55.440Z,12.86
2022-09-27T07:32:25.475Z,12.94
2022-09-27T07:34:54.417Z,12.83
2022-09-27T07:37:23.339Z,12.76
2022-09-27T07:39:51.631Z,12.81
2022-09-27T07:42:21.114Z,12.82
2022-09-27T07:44:52.767Z,13.00
2022-09-27T07:47:50.310Z,13.08
2022-09-27T07:50:24.004Z,13.06
2022-09-27T07:52:59.294Z,13.02
2022-09-27T07:55:51.106Z,12.92
2022-09-27T07:58:23.037Z,13.07
2022-09-27T08:00:56.843Z,13.15
2022-09-27T08:03:25.108Z,13.00
2022-09-27T08:05:53.251Z,13.15
2022-09-27T08:08:21.619Z,13.22
2022-09-27T08:10:51.521Z,13.20
2022-09-27T08:13:21.966Z,13.33
2022-09-27T08:15:53.247Z,13.30
2022-09-27T08:18:24.674Z,13.33
2022-09-27T08:21:01.571Z,13.43
2022-09-27T08:23:55.993Z,13.57
2022-09-27T08:26:29.730Z,13.46
2022-09-27T08:29:06.198Z,13.60
2022-09-27T08:31:39.442Z,13.58
2022-09-27T08:34:08.842Z,13.64
2022-09-27T08:36:37.512Z,13.63
2022-09-27T08:39:06.330Z,13.59
2022-09-27T08:46:25.010Z,13.54
2022-09-27T08:49:03.343Z,13.65
2022-09-27T08:51:34.547Z,13.57
2022-09-27T08:54:11.623Z,13.62
2022-09-27T08:56:40.192Z,13.58
2022-09-27T08:59:15.356Z,13.53
2022-09-27T09:01:45.041Z,13.42
2022-09-27T09:04:27.386Z,13.33
2022-09-27T09:07:07.354Z,13.31
2022-09-27T09:09:45.382Z,13.32
2022-09-27T09:12:50.112Z,13.21
2022-09-27T09:15:58.114Z,13.10
2022-09-27T09:18:49.727Z,13.14
2022-09-27T09:21:35.959Z,13.19
2022-09-27T09:24:25.482Z,13.29
2022-09-27T09:27:04.252Z,13.30
2022-09-27T09:29:58.795Z,13.36
2022-09-27T09:32:45.562Z,13.57
2022-09-27T09:35:20.994Z,13.70
2022-09-27T09:37:52.424Z,13.83
2022-09-27T09:40:25.862Z,14.11
2022-09-27T09:43:00.041Z,14.22
2022-09-27T09:45:31.802Z,14.35
2022-09-27T09:48:10.118Z,14.44
2022-09-27T09:50:46.045Z,14.67
2022-09-27T09:53:20.291Z,14.62
2022-09-27T09:55:56.269Z,14.71
2022-09-27T09:58:29.838Z,14.89
2022-09-27T10:01:17.483Z,14.92
2022-09-27T10:03:45.694Z,14.92
2022-09-27T10:06:17.386Z,15.02
2022-09-27T10:08:45.939Z,14.96
2022-09-27T10:11:41.850Z,14.81
2022-09-27T10:14:19.809Z,14.68
2022-09-27T10:16:56.140Z,14.72
2022-09-27T10:19:30.451Z,14.71
2022-09-27T10:22:12.277Z,14.61
2022-09-27T10:24:59.395Z,14.43
2022-09-27T10:27:46.973Z,14.58
2022-09-27T10:30:29.544Z,14.50
2022-09-27T10:33:03.823Z,14.65
2022-09-27T10:35:49.428Z,14.67
2022-09-27T10:38:33.218Z,14.68
2022-09-27T10:41:26.476Z,14.83
2022-09-27T10:44:24.979Z,14.89
2022-09-27T10:47:22.871Z,14.83
2022-09-27T10:50:48.933Z,14.83
2022-09-27T10:53:24.772Z,14.81
2022-09-27T10:56:08.448Z,14.90
2022-09-27T10:58:39.127Z,14.97
2022-09-27T11:01:13.177Z,14.93
2022-09-27T11:04:01.177Z,14.84
2022-09-27T11:06:37.889Z,14.59
2022-09-27T11:09:24.159Z,14.72
2022-09-27T11:12:10.252Z,14.65
2022-09-27T11:14:41.066Z,14.65
2022-09-27T11:17:18.034Z,14.66
2022-09-27T11:20:22.530Z,14.47
2022-09-27T11:23:23.267Z,14.44
2022-09-27T11:26:10.350Z,14.40
2022-09-27T11:28:53.786Z,14.29
2022-09-27T11:32:14.690Z,14.15
2022-09-27T11:35:13.872Z,14.15
2022-09-27T11:37:53.428Z,14.35
2022-09-27T11:40:36.191Z,14.26
2022-09-27T11:43:27.047Z,14.04
2022-09-27T11:46:17.956Z,13.92
2022-09-27T11:49:23.075Z,14.18
2022-09-27T11:52:20.393Z,14.19
2022-09-27T11:55:15.984Z,14.01
2022-09-27T11:57:52.745Z,13.84
2022-09-27T12:00:24.461Z,13.69
2022-09-27T12:03:53.226Z,13.64
2022-09-27T12:06:35.033Z,13.55
2022-09-27T12:09:11.230Z,13.58
2022-09-27T12:11:45.196Z,13.48
2022-09-27T12:14:26.774Z,13.42
2022-09-27T12:16:58.412Z,13.43
2022-09-27T12:19:33.745Z,13.23
2022-09-27T12:22:14.379Z,13.23
2022-09-27T12:24:47.072Z,13.32
2022-09-27T12:27:44.499Z,13.28
2022-09-27T12:30:18.664Z,13.32
2022-09-27T12:32:56.301Z,13.33
2022-09-27T12:35:29.699Z,13.38
2022-09-27T12:38:05.419Z,13.36
2022-09-27T12:40:38.693Z,13.37
2022-09-27T12:43:17.531Z,13.46
2022-09-27T12:46:36.627Z,13.52
2022-09-27T12:49:12.462Z,13.56
2022-09-27T12:51:49.235Z,13.52
2022-09-27T12:54:52.716Z,13.52
2022-09-27T12:57:35.853Z,13.54
2022-09-27T13:00:12.982Z,13.58
2022-09-27T13:03:26.001Z,13.70
2022-09-27T13:06:39.139Z,13.63
2022-09-27T13:09:39.960Z,13.59
2022-09-27T13:12:12.283Z,13.68
2022-09-27T13:14:51.193Z,13.66
2022-09-27T13:17:55.270Z,13.60
2022-09-27T13:20:49.697Z,13.58
2022-09-27T13:23:52.413Z,13.75
2022-09-27T13:26:49.903Z,13.64
2022-09-27T13:29:33.091Z,13.69
2022-09-27T13:32:24.060Z,13.70
2022-09-27T13:35:19.880Z,13.77
2022-09-27T13:37:57.002Z,13.79
2022-09-27T13:40:34.583Z,13.80
2022-09-27T13:43:48.741Z,13.79
2022-09-27T13:46:29.490Z,13.68
2022-09-27T13:49:00.651Z,13.66
2022-09-27T13:51:47.772Z,13.63
2022-09-27T13:54:40.045Z,13.61
2022-09-27T13:57:45.714Z,13.54
2022-09-27T14:00:22.810Z,13.53
2022-09-27T14:03:03.624Z,13.56
2022-09-27T14:05:39.643Z,13.57
2022-09-27T14:08:15.772Z,13.56
2022-09-27T14:10:45.054Z,13.45
2022-09-27T14:13:21.077Z,13.39
2022-09-27T14:16:04.415Z,13.43
2022-09-27T14:18:36.214Z,13.39
2022-09-27T14:21:22.207Z,13.48
2022-09-27T14:24:29.688Z,13.47
2022-09-27T14:27:17.228Z,13.48
2022-09-27T14:29:53.069Z,13.52
2022-09-27T14:32:28.473Z,13.60
2022-09-27T14:35:31.661Z,13.62
2022-09-27T14:38:07.520Z,13.65
2022-09-27T14:40:45.997Z,13.73
2022-09-27T14:43:20.674Z,13.81
2022-09-27T14:45:52.441Z,13.76
2022-09-27T14:48:27.833Z,13.85
2022-09-27T14:51:05.068Z,13.88
2022-09-27T14:53:38.573Z,13.91
2022-09-27T14:56:08.165Z,13.98
2022-09-27T14:58:47.085Z,14.02
2022-09-27T15:01:20.046Z,13.94
2022-09-27T15:03:49.940Z,13.93
2022-09-27T15:06:19.991Z,13.97
2022-09-27T15:08:50.252Z,13.87
2022-09-27T15:11:19.512Z,13.81
2022-09-27T15:13:52.513Z,13.74
2022-09-27T15:16:24.360Z,13.67
2022-09-27T15:19:03.371Z,13.68
2022-09-27T15:21:34.317Z,13.60
2022-09-27T15:24:03.008Z,13.55
2022-09-27T15:26:40.463Z,13.59
2022-09-27T15:29:20.027Z,13.62
2022-09-27T15:32:00.423Z,13.39
2022-09-27T15:34:30.049Z,13.45
2022-09-27T15:37:00.662Z,13.41
2022-09-27T15:39:32.554Z,13.23
2022-09-27T15:42:12.817Z,13.34
2022-09-27T15:44:47.641Z,13.40
2022-09-27T15:47:43.010Z,13.34
2022-09-27T15:50:37.277Z,13.30
2022-09-27T15:53:06.879Z,13.22
2022-09-27T15:55:41.108Z,13.21
2022-09-27T15:58:17.107Z,13.27
2022-09-27T16:00:56.987Z,13.16
2022-09-27T16:03:27.534Z,13.35
2022-09-27T16:05:58.470Z,13.33
2022-09-27T16:08:27.731Z,13.39
2022-09-27T16:10:58.372Z,13.47
2022-09-27T16:13:32.797Z,13.40
2022-09-27T16:16:04.043Z,13.28
2022-09-27T16:18:32.785Z,13.05
2022-09-27T16:21:02.355Z,13.25
2022-09-27T16:23:30.401Z,13.26
2022-09-27T16:25:58.435Z,13.11
2022-09-27T16:28:26.475Z,13.07
2022-09-27T16:30:54.530Z,13.14
2022-09-27T16:33:22.616Z,13.35
2022-09-27T16:35:51.635Z,13.25
2022-09-27T16:38:20.995Z,13.15
2022-09-27T16:40:49.238Z,13.05
2022-09-27T16:43:17.680Z,13.08
2022-09-27T16:45:45.717Z,13.15
2022-09-27T16:48:13.646Z,13.21
2022-09-27T16:50:59.138Z,13.30
2022-09-27T16:53:28.502Z,13.28
2022-09-27T16:56:00.366Z,13.22
2022-09-27T16:58:30.619Z,13.15
2022-09-27T17:00:59.839Z,13.23
2022-09-27T17:03:28.619Z,13.11
2022-09-27T17:06:01.299Z,13.20
2022-09-27T17:08:30.920Z,13.12
2022-09-27T17:11:00.148Z,13.13
2022-09-27T17:13:28.399Z,13.18
2022-09-27T17:15:56.457Z,13.20
2022-09-27T17:18:24.458Z,13.23
2022-09-27T17:20:52.827Z,13.21
2022-09-27T17:23:20.806Z,13.31
2022-09-27T17:25:50.566Z,13.13
2022-09-27T17:28:18.678Z,13.01
2022-09-27T17:30:46.661Z,13.09
2022-09-27T17:33:15.188Z,13.10
2022-09-27T17:35:44.304Z,13.14
2022-09-27T17:38:12.290Z,13.05
2022-09-27T17:40:40.934Z,12.97
2022-09-27T17:43:10.321Z,12.99
2022-09-27T17:45:38.399Z,13.03
2022-09-27T17:48:23.960Z,12.83
2022-09-27T17:50:52.253Z,12.68
2022-09-27T17:53:21.235Z,12.74
2022-09-27T17:55:50.332Z,12.83
2022-09-27T17:58:20.776Z,12.76
2022-09-27T18:00:48.782Z,12.63
2022-09-27T18:03:16.769Z,12.59
2022-09-27T18:05:44.848Z,12.61
2022-09-27T18:08:12.824Z,12.62
2022-09-27T18:10:40.836Z,12.43
2022-09-27T18:13:08.861Z,12.49
2022-09-27T18:15:40.006Z,12.37
2022-09-27T18:18:08.764Z,12.41
2022-09-27T18:20:36.952Z,12.38
2022-09-27T18:23:04.988Z,12.34
2022-09-27T18:25:39.998Z,12.26
2022-09-27T18:28:09.439Z,12.33
2022-09-27T18:30:38.718Z,12.28
2022-09-27T18:33:06.694Z,12.42
2022-09-27T18:35:36.227Z,12.55
2022-09-27T18:38:04.233Z,12.50
2022-09-27T18:40:54.663Z,12.63
2022-09-27T18:43:20.289Z,12.47
2022-09-27T18:45:49.680Z,12.65
2022-09-27T18:48:17.771Z,12.50
2022-09-27T18:50:46.014Z,12.50
2022-09-27T18:53:14.178Z,12.54
2022-09-27T18:55:42.238Z,12.56
2022-09-27T18:58:15.856Z,12.42
2022-09-27T19:00:44.280Z,12.50
2022-09-27T19:03:16.663Z,12.51
2022-09-27T19:05:44.728Z,12.53
2022-09-27T19:08:12.803Z,12.51
2022-09-27T19:10:40.769Z,12.55
2022-09-27T19:13:08.716Z,12.44
2022-09-27T19:15:36.762Z,12.46
2022-09-27T19:18:05.218Z,12.34
2022-09-27T19:20:35.861Z,12.39
2022-09-27T19:23:04.034Z,12.30
2022-09-27T19:25:32.069Z,12.30
2022-09-27T19:28:00.454Z,12.38
2022-09-27T19:30:28.864Z,12.43
2022-09-27T19:32:56.855Z,12.40
2022-09-27T19:35:24.939Z,12.42
2022-09-27T19:37:54.287Z,12.40
2022-09-27T19:40:22.346Z,12.27
2022-09-27T19:42:52.351Z,12.23
2022-09-27T19:45:20.539Z,12.23
2022-09-27T19:47:48.683Z,12.13
2022-09-27T19:50:16.904Z,12.21
2022-09-27T19:52:46.354Z,12.31
2022-09-27T19:55:16.064Z,12.36
2022-09-27T19:57:44.053Z,12.30
2022-09-27T20:00:13.134Z,12.33
2022-09-27T20:02:41.960Z,12.29
2022-09-27T20:05:10.605Z,12.29
2022-09-27T20:07:38.894Z,12.32
2022-09-27T20:10:08.568Z,12.29
2022-09-27T20:12:37.945Z,12.29
2022-09-27T20:15:07.302Z,12.20
2022-09-27T20:17:35.480Z,12.21
2022-09-27T20:20:03.468Z,12.24
2022-09-27T20:22:31.503Z,12.22
2022-09-27T20:24:59.489Z,12.20
2022-09-27T20:27:27.540Z,12.19
2022-09-27T20:29:57.318Z,12.16
2022-09-27T20:32:28.083Z,12.15
2022-09-27T20:34:56.270Z,12.11
2022-09-27T20:37:24.317Z,12.16
2022-09-27T20:39:53.755Z,12.23
2022-09-27T20:42:21.939Z,12.23
2022-09-27T20:44:54.108Z,12.24
2022-09-27T20:47:24.032Z,12.25
2022-09-27T20:49:52.015Z,12.26
2022-09-27T20:52:20.527Z,12.24
2022-09-27T20:54:48.491Z,12.30
2022-09-27T20:57:16.459Z,12.32
2022-09-27T20:59:44.503Z,12.31
2022-09-27T21:02:12.533Z,12.32
2022-09-27T21:04:41.866Z,12.39
2022-09-27T21:07:09.812Z,12.33
2022-09-27T21:09:38.656Z,12.33
2022-09-27T21:12:06.814Z,12.34
2022-09-27T21:14:35.378Z,12.33
2022-09-27T21:17:03.369Z,12.26
2022-09-27T21:19:31.351Z,12.28
2022-09-27T21:22:00.634Z,12.32
2022-09-27T21:24:28.549Z,12.33
2022-09-27T21:26:58.122Z,12.26
2022-09-27T21:29:26.223Z,12.26
2022-09-27T21:31:54.295Z,12.36
2022-09-27T21:34:22.415Z,12.37
2022-09-27T21:36:50.372Z,12.35
2022-09-27T21:39:19.650Z,12.38
2022-09-27T21:41:47.707Z,12.31
2022-09-27T21:44:15.740Z,12.35
2022-09-27T21:46:43.948Z,12.37
2022-09-27T21:49:12.202Z,12.37
2022-09-27T21:51:42.168Z,12.35
2022-09-27T21:54:13.300Z,12.38
2022-09-27T21:56:44.268Z,12.36
2022-09-27T21:59:16.078Z,12.42
2022-09-27T22:01:46.454Z,12.41
2022-09-27T22:04:14.732Z,12.38
2022-09-27T22:06:42.771Z,12.47
2022-09-27T22:09:15.892Z,12.44
2022-09-27T22:11:47.388Z,12.50
2022-09-27T22:14:16.952Z,12.42
2022-09-27T22:16:45.217Z,12.36
2022-09-27T22:19:15.196Z,12.39
2022-09-27T22:21:43.908Z,12.39
2022-09-27T22:24:15.318Z,12.45
2022-09-27T22:26:48.506Z,12.44
2022-09-27T22:29:16.980Z,12.35
2022-09-27T22:31:45.135Z,12.42
2022-09-27T22:34:18.505Z,12.42
2022-09-27T22:36:47.559Z,12.46
2022-09-27T22:39:15.688Z,12.50
2022-09-27T22:41:45.187Z,12.47
2022-09-27T22:44:13.137Z,12.49
2022-09-27T22:46:41.225Z,12.46
2022-09-27T22:49:09.891Z,12.38
2022-09-27T22:51:38.437Z,12.41
2022-09-27T22:54:06.785Z,12.46
2022-09-27T22:56:35.109Z,12.47
2022-09-27T22:59:04.767Z,12.49
2022-09-27T23:01:32.800Z,12.49
2022-09-27T23:04:00.841Z,12.48
2022-09-27T23:06:29.282Z,12.49
2022-09-27T23:08:58.173Z,12.51
2022-09-27T23:11:26.225Z,12.41
2022-09-27T23:13:54.159Z,12.39
2022-09-27T23:16:25.060Z,12.46
2022-09-27T23:18:56.621Z,12.43
2022-09-27T23:21:26.215Z,12.44
2022-09-27T23:23:56.383Z,12.46
2022-09-27T23:26:26.689Z,12.48
2022-09-27T23:28:55.679Z,12.53
2022-09-27T23:31:29.173Z,12.49
2022-09-27T23:33:59.659Z,12.49
2022-09-27T23:36:28.622Z,12.50
2022-09-27T23:39:01.280Z,12.48
2022-09-27T23:41:29.752Z,12.49
2022-09-27T23:43:57.999Z,12.54
2022-09-27T23:46:27.574Z,12.57
2022-09-27T23:48:58.917Z,12.55
2022-09-27T23:51:27.073Z,12.56
2022-09-27T23:53:57.306Z,12.54
2022-09-27T23:56:25.821Z,12.55
2022-09-27T23:58:53.834Z,12.61
